createdAt,value
2023-03-19T00:02:18.038Z,3.90
2023-03-19T00:04:48.049Z,3.80
2023-03-19T00:07:17.664Z,3.97
2023-03-19T00:09:48.452Z,3.99
2023-03-19T00:12:16.703Z,3.99
2023-03-19T00:14:44.774Z,3.98
2023-03-19T00:17:14.981Z,3.95
2023-03-19T00:19:43.062Z,3.88
2023-03-19T00:22:12.268Z,3.80
2023-03-19T00:24:40.179Z,3.74
2023-03-19T00:27:08.250Z,3.14
2023-03-19T00:29:36.394Z,3.74
2023-03-19T00:32:04.402Z,3.81
2023-03-19T00:34:32.392Z,3.82
2023-03-19T00:37:00.231Z,3.82
2023-03-19T00:39:29.564Z,3.83
2023-03-19T00:41:57.468Z,3.82
2023-03-19T00:44:25.583Z,3.85
2023-03-19T00:46:53.468Z,3.85
2023-03-19T00:49:21.416Z,3.85
2023-03-19T00:51:49.272Z,3.74
2023-03-19T00:54:18.069Z,3.86
2023-03-19T00:56:47.495Z,3.89
2023-03-19T00:59:15.596Z,3.92
2023-03-19T01:01:43.634Z,3.93
2023-03-19T01:04:13.078Z,3.80
2023-03-19T01:06:40.984Z,3.84
2023-03-19T01:09:08.881Z,3.87
2023-03-19T01:11:37.111Z,3.86
2023-03-19T01:14:06.464Z,3.69
2023-03-19T01:16:34.894Z,3.86
2023-03-19T01:19:04.690Z,3.76
2023-03-19T01:21:32.620Z,3.84
2023-03-19T01:24:00.684Z,3.86
2023-03-19T01:26:28.803Z,3.89
2023-03-19T01:28:56.652Z,3.86
2023-03-19T01:31:26.067Z,3.95
2023-03-19T01:33:54.034Z,3.99
2023-03-19T01:36:22.455Z,4.00
2023-03-19T01:38:50.368Z,3.77
2023-03-19T01:41:18.435Z,4.01
2023-03-19T01:43:46.407Z,4.00
2023-03-19T01:46:24.122Z,4.02
2023-03-19T01:48:57.600Z,4.03
2023-03-19T01:51:29.200Z,3.87
2023-03-19T01:54:00.268Z,4.05
2023-03-19T01:56:32.342Z,4.07
2023-03-19T01:59:04.435Z,4.09
2023-03-19T02:01:36.118Z,4.09
2023-03-19T02:04:07.170Z,4.11
2023-03-19T02:06:36.585Z,3.97
2023-03-19T02:09:04.746Z,3.89
2023-03-19T02:11:33.525Z,3.77
2023-03-19T02:14:01.355Z,4.06
2023-03-19T02:16:29.499Z,4.03
2023-03-19T02:18:57.817Z,3.97
2023-03-19T02:21:27.204Z,4.13
2023-03-19T02:24:02.773Z,4.14
2023-03-19T02:26:32.564Z,4.14
2023-03-19T02:29:00.677Z,4.15
2023-03-19T02:31:29.174Z,3.97
2023-03-19T02:33:59.545Z,4.04
2023-03-19T02:36:30.918Z,3.94
2023-03-19T02:39:02.107Z,3.99
2023-03-19T02:41:33.692Z,4.17
2023-03-19T02:44:04.648Z,4.18
2023-03-19T02:46:32.967Z,4.18
2023-03-19T02:49:00.952Z,3.94
2023-03-19T02:51:30.935Z,3.86
2023-03-19T02:54:00.914Z,4.18
2023-03-19T02:56:29.026Z,4.18
2023-03-19T02:58:58.674Z,4.17
2023-03-19T03:01:26.691Z,4.10
2023-03-19T03:03:54.882Z,4.14
2023-03-19T03:06:22.843Z,4.15
2023-03-19T03:08:51.192Z,4.14
2023-03-19T03:11:19.128Z,4.15
2023-03-19T03:13:47.131Z,4.02
2023-03-19T03:16:17.465Z,4.04
2023-03-19T03:18:45.420Z,4.14
2023-03-19T03:21:13.944Z,4.14
2023-03-19T03:23:42.130Z,4.14
2023-03-19T03:26:10.096Z,4.13
2023-03-19T03:28:37.996Z,4.15
2023-03-19T03:31:05.980Z,4.13
2023-03-19T03:33:35.272Z,3.91
2023-03-19T03:36:03.557Z,4.11
2023-03-19T03:38:32.794Z,3.46
2023-03-19T03:41:00.771Z,4.01
2023-03-19T03:43:28.904Z,4.04
2023-03-19T03:45:56.856Z,4.07
2023-03-19T03:48:26.009Z,3.87
2023-03-19T03:50:55.451Z,4.09
2023-03-19T03:53:23.472Z,4.08
2023-03-19T03:55:51.468Z,4.08
2023-03-19T03:58:19.865Z,3.68
2023-03-19T04:00:48.658Z,4.05
2023-03-19T04:03:17.590Z,4.02
2023-03-19T04:05:45.876Z,3.97
2023-03-19T04:08:16.986Z,3.96
2023-03-19T04:10:46.258Z,3.64
2023-03-19T04:13:14.528Z,3.83
2023-03-19T04:15:43.460Z,3.53
2023-03-19T04:18:11.636Z,3.89
2023-03-19T04:20:40.187Z,3.86
2023-03-19T04:23:08.356Z,3.83
2023-03-19T04:25:41.281Z,3.61
2023-03-19T04:28:09.561Z,3.56
2023-03-19T04:30:39.324Z,3.57
2023-03-19T04:33:07.522Z,3.71
2023-03-19T04:35:35.648Z,3.77
2023-03-19T04:38:04.116Z,3.76
2023-03-19T04:40:32.450Z,3.69
2023-03-19T04:43:01.853Z,3.72
2023-03-19T04:45:29.817Z,3.69
2023-03-19T04:47:58.369Z,3.66
2023-03-19T04:50:26.345Z,3.63
2023-03-19T04:52:57.025Z,2.85
2023-03-19T04:55:24.920Z,3.52
2023-03-19T04:57:52.873Z,3.53
2023-03-19T05:00:22.746Z,3.64
2023-03-19T05:02:50.663Z,3.64
2023-03-19T05:05:19.715Z,3.59
2023-03-19T05:07:47.785Z,3.64
2023-03-19T05:10:15.805Z,3.66
2023-03-19T05:12:43.694Z,3.68
2023-03-19T05:15:12.541Z,3.67
2023-03-19T05:17:41.953Z,3.68
2023-03-19T05:20:11.862Z,3.67
2023-03-19T05:22:40.095Z,3.63
2023-03-19T05:25:08.453Z,3.65
2023-03-19T05:27:36.588Z,3.65
2023-03-19T05:30:05.535Z,3.65
2023-03-19T05:32:34.127Z,3.67
2023-03-19T05:35:04.165Z,3.66
2023-03-19T05:37:32.228Z,3.55
2023-03-19T05:40:00.169Z,3.68
2023-03-19T05:42:28.344Z,3.70
2023-03-19T05:44:56.226Z,3.72
2023-03-19T05:47:24.276Z,3.74
2023-03-19T05:49:52.150Z,3.70
2023-03-19T05:52:21.436Z,3.62
2023-03-19T05:54:49.642Z,3.82
2023-03-19T05:57:18.435Z,3.88
2023-03-19T05:59:46.364Z,3.91
2023-03-19T06:02:14.522Z,3.95
2023-03-19T06:04:43.233Z,3.88
2023-03-19T06:07:11.359Z,3.95
2023-03-19T06:09:41.327Z,3.97
2023-03-19T06:12:09.564Z,4.00
2023-03-19T06:14:37.622Z,4.00
2023-03-19T06:17:05.723Z,4.07
2023-03-19T06:19:33.665Z,4.14
2023-03-19T06:22:01.597Z,4.11
2023-03-19T06:24:30.655Z,4.22
2023-03-19T06:26:59.979Z,4.13
2023-03-19T06:29:28.184Z,4.13
2023-03-19T06:31:58.096Z,4.29
2023-03-19T06:34:26.569Z,4.31
2023-03-19T06:36:54.576Z,4.31
2023-03-19T06:39:22.646Z,4.30
2023-03-19T06:41:51.450Z,4.26
2023-03-19T06:44:20.752Z,4.39
2023-03-19T06:46:48.644Z,4.37
2023-03-19T06:49:16.709Z,4.56
2023-03-19T06:51:44.756Z,3.82
2023-03-19T06:54:12.755Z,4.65
2023-03-19T06:56:40.787Z,4.70
2023-03-19T06:59:12.426Z,4.74
2023-03-19T07:01:42.458Z,4.74
2023-03-19T07:04:11.334Z,4.56
2023-03-19T07:06:39.205Z,4.79
2023-03-19T07:09:07.344Z,4.84
2023-03-19T07:11:36.010Z,4.91
2023-03-19T07:14:04.114Z,4.80
2023-03-19T07:16:32.271Z,4.64
2023-03-19T07:19:03.105Z,5.00
2023-03-19T07:21:31.146Z,5.03
2023-03-19T07:23:59.056Z,5.07
2023-03-19T07:26:27.723Z,5.11
2023-03-19T07:28:55.560Z,5.17
2023-03-19T07:31:23.730Z,5.22
2023-03-19T07:33:51.960Z,5.25
2023-03-19T07:36:21.925Z,5.28
2023-03-19T07:38:52.139Z,5.30
2023-03-19T07:41:20.132Z,5.35
2023-03-19T07:43:48.094Z,5.15
2023-03-19T07:46:16.242Z,5.53
2023-03-19T07:48:44.194Z,5.68
2023-03-19T07:51:12.237Z,5.81
2023-03-19T07:53:41.670Z,5.88
2023-03-19T07:56:10.106Z,5.96
2023-03-19T07:58:37.944Z,6.02
2023-03-19T08:01:07.366Z,6.12
2023-03-19T08:03:35.396Z,5.82
2023-03-19T08:06:03.936Z,6.09
2023-03-19T08:08:35.033Z,6.16
2023-03-19T08:11:04.716Z,5.98
2023-03-19T08:13:32.710Z,5.90
2023-03-19T08:16:01.080Z,5.74
2023-03-19T08:18:29.075Z,5.74
2023-03-19T08:20:57.000Z,5.55
2023-03-19T08:23:25.032Z,5.55
2023-03-19T08:25:53.610Z,5.66
2023-03-19T08:28:22.978Z,5.80
2023-03-19T08:30:51.121Z,5.88
2023-03-19T08:33:19.098Z,5.75
2023-03-19T08:35:47.222Z,5.72
2023-03-19T08:38:15.573Z,6.21
2023-03-19T08:40:43.736Z,6.38
2023-03-19T08:43:11.631Z,6.55
2023-03-19T08:45:43.296Z,6.63
2023-03-19T08:48:11.526Z,6.77
2023-03-19T08:50:39.372Z,6.74
2023-03-19T08:53:08.396Z,6.80
2023-03-19T08:55:40.557Z,6.75
2023-03-19T08:58:08.562Z,6.62
2023-03-19T09:00:36.711Z,6.50
2023-03-19T09:03:06.992Z,6.39
2023-03-19T09:05:35.144Z,6.43
2023-03-19T09:08:03.487Z,6.42
2023-03-19T09:10:31.788Z,6.41
2023-03-19T09:13:00.029Z,6.23
2023-03-19T09:15:29.093Z,6.47
2023-03-19T09:17:57.608Z,6.33
2023-03-19T09:20:26.923Z,6.30
2023-03-19T09:22:56.093Z,6.47
2023-03-19T09:25:24.282Z,6.99
2023-03-19T09:27:52.152Z,7.38
2023-03-19T09:30:20.042Z,7.41
2023-03-19T09:32:48.027Z,7.39
2023-03-19T09:35:16.235Z,7.24
2023-03-19T09:37:45.840Z,7.17
2023-03-19T09:40:22.313Z,7.24
2023-03-19T09:42:59.966Z,7.32
2023-03-19T09:45:29.983Z,7.28
2023-03-19T09:48:04.348Z,7.08
2023-03-19T09:50:34.844Z,6.67
2023-03-19T09:53:13.346Z,7.01
2023-03-19T09:55:45.758Z,7.19
2023-03-19T09:58:19.652Z,7.04
2023-03-19T10:00:51.839Z,7.23
2023-03-19T10:03:39.797Z,7.47
2023-03-19T10:06:23.615Z,7.58
2023-03-19T10:09:09.753Z,7.63
2023-03-19T10:11:52.856Z,7.67
2023-03-19T10:14:43.369Z,7.56
2023-03-19T10:17:16.988Z,7.87
2023-03-19T10:19:48.643Z,7.98
2023-03-19T10:22:20.805Z,8.01
2023-03-19T10:24:55.217Z,8.14
2023-03-19T10:27:27.276Z,8.00
2023-03-19T10:29:55.595Z,8.42
2023-03-19T10:32:35.858Z,8.64
2023-03-19T10:35:09.277Z,8.74
2023-03-19T10:37:37.977Z,8.64
2023-03-19T10:40:18.711Z,8.76
2023-03-19T10:43:02.723Z,8.95
2023-03-19T10:45:33.169Z,9.06
2023-03-19T10:48:03.274Z,9.15
2023-03-19T10:50:33.774Z,9.26
2023-03-19T10:53:07.792Z,9.36
2023-03-19T10:55:37.207Z,9.32
2023-03-19T10:58:07.689Z,9.22
2023-03-19T11:00:36.518Z,9.32
2023-03-19T11:03:05.562Z,9.33
2023-03-19T11:05:35.346Z,9.33
2023-03-19T11:08:05.511Z,9.12
2023-03-19T11:10:37.720Z,9.08
2023-03-19T11:13:08.201Z,9.00
2023-03-19T11:15:39.077Z,9.00
2023-03-19T11:18:10.494Z,8.82
2023-03-19T11:20:40.008Z,8.71
2023-03-19T11:23:13.556Z,8.84
2023-03-19T11:25:48.279Z,8.92
2023-03-19T11:28:21.232Z,8.89
2023-03-19T11:31:09.029Z,8.85
2023-03-19T11:33:47.240Z,8.99
2023-03-19T11:36:22.707Z,9.19
2023-03-19T11:39:03.536Z,9.28
2023-03-19T11:41:44.038Z,9.20
2023-03-19T11:44:20.320Z,8.98
2023-03-19T11:46:58.716Z,9.09
2023-03-19T11:50:01.146Z,9.28
2023-03-19T11:52:36.757Z,9.41
2023-03-19T11:55:16.316Z,9.42
2023-03-19T11:58:09.972Z,9.35
2023-03-19T12:00:47.138Z,9.04
2023-03-19T12:03:43.496Z,9.05
2023-03-19T12:06:21.026Z,9.47
2023-03-19T12:08:56.754Z,9.57
2023-03-19T12:11:28.791Z,9.22
2023-03-19T12:14:17.795Z,9.40
2023-03-19T12:17:04.336Z,9.39
2023-03-19T12:19:50.797Z,9.40
2023-03-19T12:22:33.625Z,9.37
2023-03-19T12:25:17.101Z,9.72
2023-03-19T12:27:54.794Z,9.44
2023-03-19T12:30:35.941Z,9.23
2023-03-19T12:33:13.366Z,8.78
2023-03-19T12:35:43.451Z,9.02
2023-03-19T12:38:14.945Z,8.88
2023-03-19T12:40:48.740Z,8.46
2023-03-19T12:43:21.091Z,8.80
2023-03-19T12:45:58.381Z,8.37
2023-03-19T12:48:29.835Z,8.71
2023-03-19T12:51:06.845Z,8.62
2023-03-19T12:53:41.646Z,8.18
2023-03-19T12:56:16.318Z,8.03
2023-03-19T12:58:56.308Z,8.29
2023-03-19T13:01:31.600Z,8.41
2023-03-19T13:04:04.952Z,8.52
2023-03-19T13:06:38.668Z,8.53
2023-03-19T13:09:13.064Z,8.41
2023-03-19T13:11:48.636Z,8.35
2023-03-19T13:14:24.433Z,8.17
2023-03-19T13:16:59.003Z,8.30
2023-03-19T13:19:35.611Z,8.28
2023-03-19T13:22:08.898Z,8.15
2023-03-19T13:24:40.822Z,8.24
2023-03-19T13:27:15.876Z,8.00
2023-03-19T13:29:57.501Z,8.01
2023-03-19T13:32:42.235Z,7.85
2023-03-19T13:35:20.579Z,7.47
2023-03-19T13:37:53.468Z,7.53
2023-03-19T13:40:45.836Z,7.59
2023-03-19T13:43:39.868Z,7.84
2023-03-19T13:46:32.591Z,7.75
2023-03-19T13:49:11.354Z,7.69
2023-03-19T13:51:39.624Z,7.68
2023-03-19T13:54:20.218Z,7.61
2023-03-19T13:57:07.915Z,7.60
2023-03-19T13:59:37.901Z,6.93
2023-03-19T14:02:59.088Z,7.58
2023-03-19T14:05:35.893Z,7.56
2023-03-19T14:08:17.273Z,7.62
2023-03-19T14:10:51.026Z,7.73
2023-03-19T14:13:27.839Z,7.82
2023-03-19T14:16:06.487Z,7.81
2023-03-19T14:18:37.952Z,7.82
2023-03-19T14:21:13.222Z,7.89
2023-03-19T14:23:46.357Z,7.71
2023-03-19T14:26:19.286Z,7.98
2023-03-19T14:28:58.882Z,8.07
2023-03-19T14:31:34.870Z,8.36
2023-03-19T14:34:08.799Z,8.52
2023-03-19T14:36:44.172Z,8.62
2023-03-19T14:39:21.651Z,8.74
2023-03-19T14:41:57.385Z,8.70
2023-03-19T14:44:46.138Z,7.65
2023-03-19T14:47:26.501Z,8.45
2023-03-19T14:50:12.204Z,8.50
2023-03-19T14:52:45.228Z,8.44
2023-03-19T14:55:16.459Z,8.44
2023-03-19T14:57:44.887Z,8.47
2023-03-19T15:00:17.643Z,8.41
2023-03-19T15:02:48.318Z,8.42
2023-03-19T15:05:22.319Z,8.48
2023-03-19T15:07:56.389Z,8.46
2023-03-19T15:10:28.809Z,8.35
2023-03-19T15:13:13.956Z,8.18
2023-03-19T15:15:58.023Z,8.18
2023-03-19T15:18:27.220Z,8.30
2023-03-19T15:20:57.316Z,8.44
2023-03-19T15:23:29.587Z,8.18
2023-03-19T15:26:00.953Z,8.45
2023-03-19T15:28:30.847Z,8.47
2023-03-19T15:31:12.514Z,8.29
2023-03-19T15:33:47.207Z,8.13
2023-03-19T15:36:20.109Z,8.17
2023-03-19T15:38:54.086Z,8.10
2023-03-19T15:41:23.083Z,8.05
2023-03-19T15:43:52.192Z,7.95
2023-03-19T15:46:26.200Z,7.89
2023-03-19T15:48:59.630Z,7.82
2023-03-19T15:51:28.836Z,7.82
2023-03-19T15:53:58.442Z,7.79
2023-03-19T15:56:26.742Z,7.79
2023-03-19T15:58:58.481Z,7.73
2023-03-19T16:01:28.108Z,7.51
2023-03-19T16:04:00.893Z,7.72
2023-03-19T16:06:31.890Z,7.77
2023-03-19T16:09:20.914Z,7.44
2023-03-19T16:11:49.148Z,7.55
2023-03-19T16:14:25.136Z,7.44
2023-03-19T16:17:00.942Z,7.34
2023-03-19T16:19:35.959Z,7.11
2023-03-19T16:22:12.314Z,6.63
2023-03-19T16:24:43.662Z,7.07
2023-03-19T16:27:14.922Z,6.89
2023-03-19T16:29:44.791Z,6.80
2023-03-19T16:32:21.362Z,6.93
2023-03-19T16:34:51.917Z,6.94
2023-03-19T16:37:42.221Z,6.22
2023-03-19T16:40:42.268Z,6.84
2023-03-19T16:43:17.341Z,6.77
2023-03-19T16:45:46.328Z,6.66
2023-03-19T16:48:14.183Z,6.74
2023-03-19T16:50:44.204Z,6.69
2023-03-19T16:53:21.733Z,6.68
2023-03-19T16:55:52.046Z,6.55
2023-03-19T16:58:27.085Z,6.49
2023-03-19T17:00:55.586Z,6.64
2023-03-19T17:03:23.774Z,6.57
2023-03-19T17:05:51.693Z,6.48
2023-03-19T17:08:23.458Z,6.15
2023-03-19T17:10:54.655Z,5.78
2023-03-19T17:13:28.166Z,5.38
2023-03-19T17:15:58.238Z,5.87
2023-03-19T17:18:30.604Z,6.12
2023-03-19T17:21:01.743Z,6.06
2023-03-19T17:23:30.579Z,5.85
2023-03-19T17:26:00.520Z,5.91
2023-03-19T17:28:28.478Z,5.62
2023-03-19T17:30:56.532Z,5.92
2023-03-19T17:33:26.980Z,5.90
2023-03-19T17:35:56.966Z,5.88
2023-03-19T17:38:32.804Z,5.83
2023-03-19T17:41:02.299Z,5.84
2023-03-19T17:43:31.820Z,5.46
2023-03-19T17:46:00.118Z,5.79
2023-03-19T17:48:28.412Z,5.58
2023-03-19T17:51:01.762Z,5.68
2023-03-19T17:53:30.300Z,5.69
2023-03-19T17:55:58.450Z,5.68
2023-03-19T17:58:28.100Z,5.64
2023-03-19T18:00:56.309Z,4.99
2023-03-19T18:03:26.298Z,5.46
2023-03-19T18:05:54.416Z,4.55
2023-03-19T18:08:23.817Z,4.83
2023-03-19T18:10:51.932Z,5.30
2023-03-19T18:13:20.129Z,5.27
2023-03-19T18:15:49.590Z,5.13
2023-03-19T18:18:21.561Z,5.27
2023-03-19T18:20:50.039Z,5.25
2023-03-19T18:23:18.600Z,5.26
2023-03-19T18:25:47.380Z,5.32
2023-03-19T18:28:15.510Z,4.92
2023-03-19T18:30:45.206Z,5.31
2023-03-19T18:33:18.595Z,5.29
2023-03-19T18:35:47.733Z,4.98
2023-03-19T18:38:18.684Z,4.88
2023-03-19T18:40:47.113Z,5.02
2023-03-19T18:43:16.323Z,5.09
2023-03-19T18:45:46.774Z,5.04
2023-03-19T18:48:23.210Z,4.48
2023-03-19T18:50:51.815Z,4.82
2023-03-19T18:53:20.060Z,4.06
2023-03-19T18:55:48.200Z,4.31
2023-03-19T18:58:21.868Z,4.93
2023-03-19T19:00:51.151Z,4.91
2023-03-19T19:03:28.550Z,4.15
2023-03-19T19:05:56.980Z,4.37
2023-03-19T19:08:25.421Z,4.74
2023-03-19T19:10:56.637Z,4.74
2023-03-19T19:13:29.162Z,4.75
2023-03-19T19:15:58.837Z,4.50
2023-03-19T19:18:31.728Z,4.62
2023-03-19T19:21:00.959Z,4.68
2023-03-19T19:23:30.331Z,4.63
2023-03-19T19:25:58.563Z,4.63
2023-03-19T19:28:30.653Z,4.52
2023-03-19T19:31:00.985Z,4.57
2023-03-19T19:33:34.726Z,4.55
2023-03-19T19:36:03.326Z,4.52
2023-03-19T19:38:31.462Z,4.35
2023-03-19T19:41:00.629Z,4.38
2023-03-19T19:43:31.623Z,4.39
2023-03-19T19:46:00.528Z,4.00
2023-03-19T19:48:30.648Z,3.99
2023-03-19T19:50:59.091Z,4.36
2023-03-19T19:53:29.600Z,4.26
2023-03-19T19:55:57.906Z,3.96
2023-03-19T19:58:33.668Z,4.23
2023-03-19T20:01:04.184Z,4.24
2023-03-19T20:03:35.146Z,4.23
2023-03-19T20:06:03.630Z,4.19
2023-03-19T20:08:31.572Z,4.16
2023-03-19T20:11:00.997Z,4.16
2023-03-19T20:13:32.671Z,4.18
2023-03-19T20:16:03.183Z,4.15
2023-03-19T20:18:35.823Z,3.70
2023-03-19T20:21:04.369Z,4.15
2023-03-19T20:23:32.601Z,4.16
2023-03-19T20:26:01.915Z,4.16
2023-03-19T20:28:35.692Z,4.12
2023-03-19T20:31:05.836Z,4.06
2023-03-19T20:33:37.531Z,4.06
2023-03-19T20:36:06.411Z,4.08
2023-03-19T20:38:36.734Z,4.08
2023-03-19T20:41:04.752Z,3.88
2023-03-19T20:43:35.370Z,4.05
2023-03-19T20:46:06.124Z,4.10
2023-03-19T20:48:35.767Z,4.06
2023-03-19T20:51:04.114Z,4.03
2023-03-19T20:53:32.260Z,4.01
2023-03-19T20:56:03.051Z,3.64
2023-03-19T20:58:33.734Z,4.05
2023-03-19T21:01:02.867Z,4.08
2023-03-19T21:03:32.569Z,3.96
2023-03-19T21:06:04.831Z,3.92
2023-03-19T21:08:39.579Z,3.81
2023-03-19T21:11:11.623Z,3.73
2023-03-19T21:13:39.598Z,3.45
2023-03-19T21:16:10.328Z,3.65
2023-03-19T21:18:38.300Z,3.56
2023-03-19T21:21:07.822Z,3.59
2023-03-19T21:23:38.226Z,3.16
2023-03-19T21:26:16.240Z,3.54
2023-03-19T21:28:46.451Z,3.53
2023-03-19T21:31:17.990Z,3.51
2023-03-19T21:33:47.707Z,3.51
2023-03-19T21:36:17.516Z,3.28
2023-03-19T21:38:45.883Z,3.47
2023-03-19T21:41:22.074Z,2.96
2023-03-19T21:43:54.059Z,3.39
2023-03-19T21:46:26.252Z,3.36
2023-03-19T21:48:55.085Z,3.38
2023-03-19T21:51:25.512Z,3.10
2023-03-19T21:53:53.642Z,3.32
2023-03-19T21:56:24.850Z,3.08
2023-03-19T21:58:54.090Z,3.35
2023-03-19T22:01:24.537Z,3.31
2023-03-19T22:03:54.014Z,2.85
2023-03-19T22:06:23.028Z,3.28
2023-03-19T22:08:54.157Z,3.22
2023-03-19T22:11:26.819Z,3.25
2023-03-19T22:13:55.569Z,3.29
2023-03-19T22:16:25.767Z,3.33
2023-03-19T22:18:54.320Z,3.33
2023-03-19T22:21:23.765Z,3.29
2023-03-19T22:23:53.699Z,3.07
2023-03-19T22:26:33.997Z,3.22
2023-03-19T22:29:04.313Z,3.03
2023-03-19T22:31:33.033Z,2.82
2023-03-19T22:34:01.051Z,2.76
2023-03-19T22:36:29.192Z,2.88
2023-03-19T22:38:58.929Z,2.60
2023-03-19T22:41:34.134Z,2.89
2023-03-19T22:44:04.568Z,2.87
2023-03-19T22:46:32.540Z,2.87
2023-03-19T22:49:01.672Z,2.85
2023-03-19T22:51:29.848Z,2.67
2023-03-19T22:53:59.048Z,2.77
2023-03-19T22:56:27.018Z,2.78
2023-03-19T22:58:55.023Z,2.74
2023-03-19T23:01:36.389Z,2.00
2023-03-19T23:04:18.275Z,2.53
2023-03-19T23:06:46.485Z,2.66
2023-03-19T23:09:19.482Z,2.67
2023-03-19T23:11:48.317Z,2.70
2023-03-19T23:14:28.430Z,2.18
2023-03-19T23:17:00.975Z,2.73
2023-03-19T23:19:31.113Z,2.74
2023-03-19T23:22:01.548Z,2.73
2023-03-19T23:24:31.132Z,2.70
2023-03-19T23:27:00.944Z,2.60
2023-03-19T23:29:32.588Z,2.73
2023-03-19T23:32:00.548Z,2.62
2023-03-19T23:34:29.553Z,2.72
2023-03-19T23:36:58.158Z,2.64
2023-03-19T23:39:26.266Z,2.71
2023-03-19T23:41:57.956Z,2.72
2023-03-19T23:44:29.339Z,2.58
2023-03-19T23:47:00.926Z,2.59
2023-03-19T23:49:31.119Z,2.70
2023-03-19T23:52:00.103Z,2.70
2023-03-19T23:54:30.672Z,2.67
2023-03-19T23:57:02.650Z,2.62
2023-03-19T23:59:34.581Z,2.60
